sensor_id;sensor_type;location;lat;lon;timestamp;temperature;humidity
38902;DHT22;24661;53.566;9.910;2023-01-15T00:00:19;6.50;99.90
38902;DHT22;24661;53.566;9.910;2023-01-15T00:02:45;6.50;99.90
38902;DHT22;24661;53.566;9.910;2023-01-15T00:05:11;6.50;99.90
38902;DHT22;24661;53.566;9.910;2023-01-15T00:07:37;6.60;99.90
38902;DHT22;24661;53.566;9.910;2023-01-15T00:10:04;6.50;99.90
38902;DHT22;24661;53.566;9.910;2023-01-15T00:12:30;6.40;99.90
38902;DHT22;24661;53.566;9.910;2023-01-15T00:14:55;6.50;99.90
38902;DHT22;24661;53.566;9.910;2023-01-15T00:17:22;6.50;99.90
38902;DHT22;24661;53.566;9.910;2023-01-15T00:19:48;6.50;99.90
38902;DHT22;24661;53.566;9.910;2023-01-15T00:22:14;6.50;99.90
38902;DHT22;24661;53.566;9.910;2023-01-15T00:24:40;6.50;99.90
38902;DHT22;24661;53.566;9.910;2023-01-15T00:27:24;6.50;99.90
38902;DHT22;24661;53.566;9.910;2023-01-15T00:30:11;6.50;99.90
38902;DHT22;24661;53.566;9.910;2023-01-15T00:32:41;6.50;99.90
38902;DHT22;24661;53.566;9.910;2023-01-15T00:35:14;6.50;99.90
38902;DHT22;24661;53.566;9.910;2023-01-15T00:37:41;6.50;99.90
38902;DHT22;24661;53.566;9.910;2023-01-15T00:40:07;6.50;99.90
38902;DHT22;24661;53.566;9.910;2023-01-15T00:42:33;6.60;99.90
38902;DHT22;24661;53.566;9.910;2023-01-15T00:44:59;6.60;99.90
38902;DHT22;24661;53.566;9.910;2023-01-15T00:47:36;6.60;99.90
38902;DHT22;24661;53.566;9.910;2023-01-15T00:50:03;6.60;99.90
38902;DHT22;24661;53.566;9.910;2023-01-15T00:52:29;6.60;99.90
38902;DHT22;24661;53.566;9.910;2023-01-15T00:54:58;7.80;99.90
38902;DHT22;24661;53.566;9.910;2023-01-15T00:57:24;6.60;99.90
38902;DHT22;24661;53.566;9.910;2023-01-15T00:59:50;6.60;99.90
38902;DHT22;24661;53.566;9.910;2023-01-15T01:02:16;6.60;99.90
38902;DHT22;24661;53.566;9.910;2023-01-15T01:04:42;6.60;99.90
38902;DHT22;24661;53.566;9.910;2023-01-15T01:07:08;6.60;99.90
38902;DHT22;24661;53.566;9.910;2023-01-15T01:09:34;7.10;99.90
38902;DHT22;24661;53.566;9.910;2023-01-15T01:12:03;6.60;99.90
38902;DHT22;24661;53.566;9.910;2023-01-15T01:14:29;6.60;99.90
38902;DHT22;24661;53.566;9.910;2023-01-15T01:16:56;6.60;99.90
38902;DHT22;24661;53.566;9.910;2023-01-15T01:19:22;6.60;99.90
38902;DHT22;24661;53.566;9.910;2023-01-15T01:21:51;6.60;99.90
38902;DHT22;24661;53.566;9.910;2023-01-15T01:24:20;6.70;99.90
38902;DHT22;24661;53.566;9.910;2023-01-15T01:26:47;6.70;99.90
38902;DHT22;24661;53.566;9.910;2023-01-15T01:29:18;6.70;99.90
38902;DHT22;24661;53.566;9.910;2023-01-15T01:31:44;4.70;99.90
38902;DHT22;24661;53.566;9.910;2023-01-15T01:34:11;6.70;99.90
38902;DHT22;24661;53.566;9.910;2023-01-15T01:36:41;6.80;99.90
38902;DHT22;24661;53.566;9.910;2023-01-15T01:39:12;6.80;99.90
38902;DHT22;24661;53.566;9.910;2023-01-15T01:41:39;6.90;99.90
38902;DHT22;24661;53.566;9.910;2023-01-15T01:44:53;6.80;99.90
38902;DHT22;24661;53.566;9.910;2023-01-15T01:46:55;6.80;99.90
38902;DHT22;24661;53.566;9.910;2023-01-15T01:49:26;6.80;99.90
38902;DHT22;24661;53.566;9.910;2023-01-15T01:52:03;6.70;99.90
38902;DHT22;24661;53.566;9.910;2023-01-15T01:54:31;6.70;99.90
38902;DHT22;24661;53.566;9.910;2023-01-15T01:56:59;6.70;99.90
38902;DHT22;24661;53.566;9.910;2023-01-15T01:59:26;6.80;99.90
38902;DHT22;24661;53.566;9.910;2023-01-15T02:01:52;7.70;99.90
38902;DHT22;24661;53.566;9.910;2023-01-15T02:04:20;6.80;99.90
38902;DHT22;24661;53.566;9.910;2023-01-15T02:06:47;6.80;99.90
38902;DHT22;24661;53.566;9.910;2023-01-15T02:09:12;6.80;99.90
38902;DHT22;24661;53.566;9.910;2023-01-15T02:11:38;6.80;99.90
38902;DHT22;24661;53.566;9.910;2023-01-15T02:14:28;6.80;99.90
38902;DHT22;24661;53.566;9.910;2023-01-15T02:27:35;6.80;99.90
38902;DHT22;24661;53.566;9.910;2023-01-15T02:35:37;6.80;99.90
38902;DHT22;24661;53.566;9.910;2023-01-15T02:38:07;6.80;99.90
38902;DHT22;24661;53.566;9.910;2023-01-15T02:40:36;6.80;99.90
38902;DHT22;24661;53.566;9.910;2023-01-15T02:43:04;6.80;99.90
38902;DHT22;24661;53.566;9.910;2023-01-15T02:45:33;6.80;99.90
38902;DHT22;24661;53.566;9.910;2023-01-15T02:48:22;6.90;99.90
38902;DHT22;24661;53.566;9.910;2023-01-15T02:50:54;6.80;99.90
38902;DHT22;24661;53.566;9.910;2023-01-15T02:53:27;6.80;99.90
38902;DHT22;24661;53.566;9.910;2023-01-15T02:55:56;6.80;99.90
38902;DHT22;24661;53.566;9.910;2023-01-15T02:58:26;6.80;99.90
38902;DHT22;24661;53.566;9.910;2023-01-15T03:00:55;6.80;99.90
38902;DHT22;24661;53.566;9.910;2023-01-15T03:03:30;6.90;99.90
38902;DHT22;24661;53.566;9.910;2023-01-15T03:06:17;6.90;99.90
38902;DHT22;24661;53.566;9.910;2023-01-15T03:08:43;6.90;99.90
38902;DHT22;24661;53.566;9.910;2023-01-15T03:11:12;6.90;99.90
38902;DHT22;24661;53.566;9.910;2023-01-15T03:13:54;6.90;99.90
38902;DHT22;24661;53.566;9.910;2023-01-15T03:24:31;6.90;99.90
38902;DHT22;24661;53.566;9.910;2023-01-15T03:26:58;6.90;99.90
38902;DHT22;24661;53.566;9.910;2023-01-15T03:29:28;6.90;99.90
38902;DHT22;24661;53.566;9.910;2023-01-15T03:31:55;6.90;99.90
38902;DHT22;24661;53.566;9.910;2023-01-15T03:34:20;6.80;99.90
38902;DHT22;24661;53.566;9.910;2023-01-15T03:36:46;6.80;99.90
38902;DHT22;24661;53.566;9.910;2023-01-15T03:39:13;6.90;99.90
38902;DHT22;24661;53.566;9.910;2023-01-15T03:41:47;6.80;99.90
38902;DHT22;24661;53.566;9.910;2023-01-15T03:44:42;6.80;99.90
38902;DHT22;24661;53.566;9.910;2023-01-15T03:47:17;6.80;99.90
38902;DHT22;24661;53.566;9.910;2023-01-15T03:50:08;6.80;99.90
38902;DHT22;24661;53.566;9.910;2023-01-15T03:52:47;6.80;99.90
38902;DHT22;24661;53.566;9.910;2023-01-15T03:55:18;6.80;99.90
38902;DHT22;24661;53.566;9.910;2023-01-15T03:58:29;6.80;99.90
38902;DHT22;24661;53.566;9.910;2023-01-15T04:00:51;6.80;99.90
38902;DHT22;24661;53.566;9.910;2023-01-15T04:03:18;6.70;99.90
38902;DHT22;24661;53.566;9.910;2023-01-15T04:05:45;6.80;99.90
38902;DHT22;24661;53.566;9.910;2023-01-15T04:08:12;6.80;99.90
38902;DHT22;24661;53.566;9.910;2023-01-15T04:10:52;6.70;99.90
38902;DHT22;24661;53.566;9.910;2023-01-15T04:13:19;6.70;99.90
38902;DHT22;24661;53.566;9.910;2023-01-15T04:15:45;6.70;99.90
38902;DHT22;24661;53.566;9.910;2023-01-15T04:18:11;6.70;99.90
38902;DHT22;24661;53.566;9.910;2023-01-15T04:20:36;6.70;99.90
38902;DHT22;24661;53.566;9.910;2023-01-15T04:23:02;6.70;99.90
38902;DHT22;24661;53.566;9.910;2023-01-15T04:25:27;6.70;99.90
38902;DHT22;24661;53.566;9.910;2023-01-15T04:27:53;6.70;99.90
38902;DHT22;24661;53.566;9.910;2023-01-15T04:30:20;6.70;99.90
38902;DHT22;24661;53.566;9.910;2023-01-15T04:32:51;6.70;99.90
38902;DHT22;24661;53.566;9.910;2023-01-15T04:35:17;6.70;99.90
38902;DHT22;24661;53.566;9.910;2023-01-15T04:37:43;6.70;99.90
38902;DHT22;24661;53.566;9.910;2023-01-15T04:40:09;6.70;99.90
38902;DHT22;24661;53.566;9.910;2023-01-15T04:42:56;6.70;99.90
38902;DHT22;24661;53.566;9.910;2023-01-15T04:45:43;6.70;99.90
38902;DHT22;24661;53.566;9.910;2023-01-15T04:48:08;6.70;99.90
38902;DHT22;24661;53.566;9.910;2023-01-15T04:50:34;6.60;99.90
38902;DHT22;24661;53.566;9.910;2023-01-15T04:53:00;6.60;99.90
38902;DHT22;24661;53.566;9.910;2023-01-15T04:55:25;6.60;99.90
38902;DHT22;24661;53.566;9.910;2023-01-15T04:57:51;6.60;99.90
38902;DHT22;24661;53.566;9.910;2023-01-15T05:00:17;6.60;99.90
38902;DHT22;24661;53.566;9.910;2023-01-15T05:02:43;6.60;99.90
38902;DHT22;24661;53.566;9.910;2023-01-15T05:05:09;6.60;99.90
38902;DHT22;24661;53.566;9.910;2023-01-15T05:07:34;6.60;99.90
38902;DHT22;24661;53.566;9.910;2023-01-15T05:10:00;6.50;99.90
38902;DHT22;24661;53.566;9.910;2023-01-15T05:12:26;6.60;99.90
38902;DHT22;24661;53.566;9.910;2023-01-15T05:14:52;6.60;99.90
38902;DHT22;24661;53.566;9.910;2023-01-15T05:17:18;6.60;99.90
38902;DHT22;24661;53.566;9.910;2023-01-15T05:19:44;6.60;99.90
38902;DHT22;24661;53.566;9.910;2023-01-15T05:22:09;6.60;99.90
38902;DHT22;24661;53.566;9.910;2023-01-15T05:24:35;6.70;99.90
38902;DHT22;24661;53.566;9.910;2023-01-15T05:27:00;6.70;99.90
38902;DHT22;24661;53.566;9.910;2023-01-15T05:29:26;6.70;99.90
38902;DHT22;24661;53.566;9.910;2023-01-15T05:31:52;6.70;99.90
38902;DHT22;24661;53.566;9.910;2023-01-15T05:34:18;6.70;99.90
38902;DHT22;24661;53.566;9.910;2023-01-15T05:36:43;5.40;99.90
38902;DHT22;24661;53.566;9.910;2023-01-15T05:39:09;6.70;99.90
38902;DHT22;24661;53.566;9.910;2023-01-15T05:41:35;6.70;99.90
38902;DHT22;24661;53.566;9.910;2023-01-15T05:44:20;6.60;99.90
38902;DHT22;24661;53.566;9.910;2023-01-15T05:46:47;8.10;99.90
38902;DHT22;24661;53.566;9.910;2023-01-15T05:49:15;6.60;99.90
38902;DHT22;24661;53.566;9.910;2023-01-15T05:51:42;6.50;99.90
38902;DHT22;24661;53.566;9.910;2023-01-15T05:54:12;6.50;99.90
38902;DHT22;24661;53.566;9.910;2023-01-15T05:56:38;6.50;99.90
38902;DHT22;24661;53.566;9.910;2023-01-15T05:59:06;6.50;99.90
38902;DHT22;24661;53.566;9.910;2023-01-15T06:01:32;6.50;99.90
38902;DHT22;24661;53.566;9.910;2023-01-15T06:04:02;6.40;99.90
38902;DHT22;24661;53.566;9.910;2023-01-15T06:06:28;6.50;99.90
38902;DHT22;24661;53.566;9.910;2023-01-15T06:08:54;6.50;99.90
38902;DHT22;24661;53.566;9.910;2023-01-15T06:11:20;6.50;99.90
38902;DHT22;24661;53.566;9.910;2023-01-15T06:13:46;6.50;99.90
38902;DHT22;24661;53.566;9.910;2023-01-15T06:16:12;6.60;99.90
38902;DHT22;24661;53.566;9.910;2023-01-15T06:18:38;6.60;99.90
38902;DHT22;24661;53.566;9.910;2023-01-15T06:21:05;6.60;99.90
38902;DHT22;24661;53.566;9.910;2023-01-15T06:23:31;6.60;99.90
38902;DHT22;24661;53.566;9.910;2023-01-15T06:26:01;5.50;99.90
38902;DHT22;24661;53.566;9.910;2023-01-15T06:28:27;6.70;99.90
38902;DHT22;24661;53.566;9.910;2023-01-15T06:30:52;6.70;99.90
38902;DHT22;24661;53.566;9.910;2023-01-15T06:33:18;6.70;99.90
38902;DHT22;24661;53.566;9.910;2023-01-15T06:35:44;6.70;99.90
38902;DHT22;24661;53.566;9.910;2023-01-15T06:38:09;6.70;99.90
38902;DHT22;24661;53.566;9.910;2023-01-15T06:40:35;6.70;99.90
38902;DHT22;24661;53.566;9.910;2023-01-15T06:43:01;6.70;99.90
38902;DHT22;24661;53.566;9.910;2023-01-15T06:45:45;6.70;99.90
38902;DHT22;24661;53.566;9.910;2023-01-15T06:48:29;6.70;99.90
38902;DHT22;24661;53.566;9.910;2023-01-15T06:50:55;6.90;99.90
38902;DHT22;24661;53.566;9.910;2023-01-15T06:53:21;6.70;99.90
38902;DHT22;24661;53.566;9.910;2023-01-15T06:55:47;6.80;99.90
38902;DHT22;24661;53.566;9.910;2023-01-15T06:58:12;6.80;99.90
38902;DHT22;24661;53.566;9.910;2023-01-15T07:00:38;6.80;99.90
38902;DHT22;24661;53.566;9.910;2023-01-15T07:03:07;6.80;99.90
38902;DHT22;24661;53.566;9.910;2023-01-15T07:05:33;7.00;99.90
38902;DHT22;24661;53.566;9.910;2023-01-15T07:07:59;6.80;99.90
38902;DHT22;24661;53.566;9.910;2023-01-15T07:10:24;6.80;99.90
38902;DHT22;24661;53.566;9.910;2023-01-15T07:12:51;6.90;99.90
38902;DHT22;24661;53.566;9.910;2023-01-15T07:15:17;6.80;99.90
38902;DHT22;24661;53.566;9.910;2023-01-15T07:17:42;6.80;99.90
38902;DHT22;24661;53.566;9.910;2023-01-15T07:20:08;6.80;99.90
38902;DHT22;24661;53.566;9.910;2023-01-15T07:22:34;6.80;99.90
38902;DHT22;24661;53.566;9.910;2023-01-15T07:25:00;6.80;99.90
38902;DHT22;24661;53.566;9.910;2023-01-15T07:27:26;6.80;99.90
38902;DHT22;24661;53.566;9.910;2023-01-15T07:29:52;6.80;99.90
38902;DHT22;24661;53.566;9.910;2023-01-15T07:32:18;6.80;99.90
38902;DHT22;24661;53.566;9.910;2023-01-15T07:34:44;6.70;99.90
38902;DHT22;24661;53.566;9.910;2023-01-15T07:37:10;6.70;99.90
38902;DHT22;24661;53.566;9.910;2023-01-15T07:39:36;6.70;99.90
38902;DHT22;24661;53.566;9.910;2023-01-15T07:42:01;6.70;99.90
38902;DHT22;24661;53.566;9.910;2023-01-15T07:44:46;6.70;99.90
38902;DHT22;24661;53.566;9.910;2023-01-15T07:47:30;6.70;99.90
38902;DHT22;24661;53.566;9.910;2023-01-15T07:50:16;6.70;99.90
38902;DHT22;24661;53.566;9.910;2023-01-15T07:52:42;6.70;99.90
38902;DHT22;24661;53.566;9.910;2023-01-15T07:55:10;6.70;99.90
38902;DHT22;24661;53.566;9.910;2023-01-15T07:57:37;6.70;99.90
38902;DHT22;24661;53.566;9.910;2023-01-15T08:00:05;6.70;99.90
38902;DHT22;24661;53.566;9.910;2023-01-15T08:02:31;6.70;99.90
38902;DHT22;24661;53.566;9.910;2023-01-15T08:04:58;6.70;99.90
38902;DHT22;24661;53.566;9.910;2023-01-15T08:07:24;6.70;99.90
38902;DHT22;24661;53.566;9.910;2023-01-15T08:09:51;6.60;99.90
38902;DHT22;24661;53.566;9.910;2023-01-15T08:12:16;6.60;99.90
38902;DHT22;24661;53.566;9.910;2023-01-15T08:15:01;6.60;99.90
38902;DHT22;24661;53.566;9.910;2023-01-15T08:17:43;6.60;99.90
38902;DHT22;24661;53.566;9.910;2023-01-15T08:20:15;6.70;99.90
38902;DHT22;24661;53.566;9.910;2023-01-15T08:22:42;6.70;99.90
38902;DHT22;24661;53.566;9.910;2023-01-15T08:25:11;6.70;99.90
38902;DHT22;24661;53.566;9.910;2023-01-15T08:27:37;6.70;99.90
38902;DHT22;24661;53.566;9.910;2023-01-15T08:30:09;6.60;99.90
38902;DHT22;24661;53.566;9.910;2023-01-15T08:32:36;6.50;99.90
38902;DHT22;24661;53.566;9.910;2023-01-15T08:35:01;6.50;99.90
38902;DHT22;24661;53.566;9.910;2023-01-15T08:37:27;6.50;99.90
38902;DHT22;24661;53.566;9.910;2023-01-15T08:39:53;6.50;99.90
38902;DHT22;24661;53.566;9.910;2023-01-15T08:42:19;6.40;99.90
38902;DHT22;24661;53.566;9.910;2023-01-15T08:44:45;6.40;99.90
38902;DHT22;24661;53.566;9.910;2023-01-15T08:47:11;6.40;99.90
38902;DHT22;24661;53.566;9.910;2023-01-15T08:49:37;6.30;99.90
38902;DHT22;24661;53.566;9.910;2023-01-15T08:52:02;6.30;99.90
38902;DHT22;24661;53.566;9.910;2023-01-15T08:54:28;6.40;99.90
38902;DHT22;24661;53.566;9.910;2023-01-15T08:56:54;6.30;99.90
38902;DHT22;24661;53.566;9.910;2023-01-15T08:59:19;6.30;99.90
38902;DHT22;24661;53.566;9.910;2023-01-15T09:01:45;6.20;99.90
38902;DHT22;24661;53.566;9.910;2023-01-15T09:04:16;6.20;99.90
38902;DHT22;24661;53.566;9.910;2023-01-15T09:06:42;6.40;99.90
38902;DHT22;24661;53.566;9.910;2023-01-15T09:09:09;6.10;99.90
38902;DHT22;24661;53.566;9.910;2023-01-15T09:11:35;6.20;99.90
38902;DHT22;24661;53.566;9.910;2023-01-15T09:14:01;6.20;99.90
38902;DHT22;24661;53.566;9.910;2023-01-15T09:16:27;8.10;99.90
38902;DHT22;24661;53.566;9.910;2023-01-15T09:18:55;6.20;99.90
38902;DHT22;24661;53.566;9.910;2023-01-15T09:21:22;6.20;99.90
38902;DHT22;24661;53.566;9.910;2023-01-15T09:23:47;6.10;99.90
38902;DHT22;24661;53.566;9.910;2023-01-15T09:26:26;6.20;99.90
38902;DHT22;24661;53.566;9.910;2023-01-15T09:28:52;7.20;99.90
38902;DHT22;24661;53.566;9.910;2023-01-15T09:31:18;6.30;99.90
38902;DHT22;24661;53.566;9.910;2023-01-15T09:33:43;6.30;99.90
38902;DHT22;24661;53.566;9.910;2023-01-15T09:36:17;6.30;99.90
38902;DHT22;24661;53.566;9.910;2023-01-15T09:38:44;6.40;99.90
38902;DHT22;24661;53.566;9.910;2023-01-15T09:41:12;6.40;99.90
38902;DHT22;24661;53.566;9.910;2023-01-15T09:44:31;6.50;99.90
38902;DHT22;24661;53.566;9.910;2023-01-15T09:47:26;6.50;99.90
38902;DHT22;24661;53.566;9.910;2023-01-15T09:50:17;6.60;99.90
38902;DHT22;24661;53.566;9.910;2023-01-15T09:55:19;6.70;99.90
38902;DHT22;24661;53.566;9.910;2023-01-15T09:57:50;6.90;99.90
38902;DHT22;24661;53.566;9.910;2023-01-15T10:00:20;7.00;99.90
38902;DHT22;24661;53.566;9.910;2023-01-15T10:05:45;7.10;99.90
38902;DHT22;24661;53.566;9.910;2023-01-15T10:08:22;7.20;99.90
38902;DHT22;24661;53.566;9.910;2023-01-15T10:16:40;7.40;99.90
38902;DHT22;24661;53.566;9.910;2023-01-15T10:19:07;7.40;99.90
38902;DHT22;24661;53.566;9.910;2023-01-15T10:22:10;7.50;99.90
38902;DHT22;24661;53.566;9.910;2023-01-15T10:24:54;7.40;99.90
38902;DHT22;24661;53.566;9.910;2023-01-15T10:27:25;7.30;99.90
38902;DHT22;24661;53.566;9.910;2023-01-15T10:29:57;7.30;99.90
38902;DHT22;24661;53.566;9.910;2023-01-15T10:32:42;7.20;99.90
38902;DHT22;24661;53.566;9.910;2023-01-15T10:35:29;7.30;99.90
38902;DHT22;24661;53.566;9.910;2023-01-15T10:38:19;7.30;99.90
38902;DHT22;24661;53.566;9.910;2023-01-15T10:45:56;7.30;99.90
38902;DHT22;24661;53.566;9.910;2023-01-15T10:51:21;7.30;99.90
38902;DHT22;24661;53.566;9.910;2023-01-15T10:54:04;7.30;99.90
38902;DHT22;24661;53.566;9.910;2023-01-15T10:57:06;7.40;99.90
38902;DHT22;24661;53.566;9.910;2023-01-15T10:59:49;7.30;99.90
38902;DHT22;24661;53.566;9.910;2023-01-15T11:02:33;7.30;99.90
38902;DHT22;24661;53.566;9.910;2023-01-15T11:05:02;7.30;99.90
38902;DHT22;24661;53.566;9.910;2023-01-15T11:07:52;7.30;99.90
38902;DHT22;24661;53.566;9.910;2023-01-15T11:10:20;7.20;99.90
38902;DHT22;24661;53.566;9.910;2023-01-15T11:15:58;7.20;99.90
38902;DHT22;24661;53.566;9.910;2023-01-15T11:18:43;7.30;99.90
38902;DHT22;24661;53.566;9.910;2023-01-15T11:21:29;7.20;99.90
38902;DHT22;24661;53.566;9.910;2023-01-15T11:23:56;7.20;99.90
38902;DHT22;24661;53.566;9.910;2023-01-15T11:28:49;7.20;99.90
38902;DHT22;24661;53.566;9.910;2023-01-15T11:31:16;7.20;99.90
38902;DHT22;24661;53.566;9.910;2023-01-15T11:33:58;7.20;99.90
38902;DHT22;24661;53.566;9.910;2023-01-15T11:36:25;6.90;99.90
38902;DHT22;24661;53.566;9.910;2023-01-15T11:38:53;6.70;99.90
38902;DHT22;24661;53.566;9.910;2023-01-15T11:41:30;6.40;99.90
38902;DHT22;24661;53.566;9.910;2023-01-15T11:44:16;6.20;99.90
38902;DHT22;24661;53.566;9.910;2023-01-15T11:47:01;6.20;99.90
38902;DHT22;24661;53.566;9.910;2023-01-15T11:49:51;6.10;99.90
38902;DHT22;24661;53.566;9.910;2023-01-15T11:53:02;6.10;99.90
38902;DHT22;24661;53.566;9.910;2023-01-15T11:55:29;4.90;99.90
38902;DHT22;24661;53.566;9.910;2023-01-15T11:57:57;5.70;99.90
38902;DHT22;24661;53.566;9.910;2023-01-15T12:00:26;5.70;99.90
38902;DHT22;24661;53.566;9.910;2023-01-15T12:02:57;5.50;99.90
38902;DHT22;24661;53.566;9.910;2023-01-15T12:05:28;5.20;99.90
38902;DHT22;24661;53.566;9.910;2023-01-15T12:07:57;5.20;99.90
38902;DHT22;24661;53.566;9.910;2023-01-15T12:10:35;5.20;99.90
38902;DHT22;24661;53.566;9.910;2023-01-15T12:13:52;5.20;99.90
38902;DHT22;24661;53.566;9.910;2023-01-15T12:22:38;5.40;99.90
38902;DHT22;24661;53.566;9.910;2023-01-15T12:35:46;5.50;99.90
38902;DHT22;24661;53.566;9.910;2023-01-15T12:38:20;6.90;99.90
38902;DHT22;24661;53.566;9.910;2023-01-15T12:40:50;5.50;99.90
38902;DHT22;24661;53.566;9.910;2023-01-15T12:43:24;5.60;99.90
38902;DHT22;24661;53.566;9.910;2023-01-15T12:46:17;5.50;99.90
38902;DHT22;24661;53.566;9.910;2023-01-15T12:48:53;5.60;99.90
38902;DHT22;24661;53.566;9.910;2023-01-15T12:51:49;5.70;99.90
38902;DHT22;24661;53.566;9.910;2023-01-15T12:54:22;5.90;99.90
38902;DHT22;24661;53.566;9.910;2023-01-15T12:57:15;6.10;99.90
38902;DHT22;24661;53.566;9.910;2023-01-15T12:59:53;6.20;99.90
38902;DHT22;24661;53.566;9.910;2023-01-15T13:05:20;6.30;99.90
38902;DHT22;24661;53.566;9.910;2023-01-15T13:10:35;6.50;99.90
38902;DHT22;24661;53.566;9.910;2023-01-15T13:13:24;6.50;99.90
38902;DHT22;24661;53.566;9.910;2023-01-15T13:18:53;6.50;99.90
38902;DHT22;24661;53.566;9.910;2023-01-15T13:21:16;6.50;99.90
38902;DHT22;24661;53.566;9.910;2023-01-15T13:34:46;6.60;99.90
38902;DHT22;24661;53.566;9.910;2023-01-15T13:37:27;6.60;99.90
38902;DHT22;24661;53.566;9.910;2023-01-15T13:40:09;6.70;99.90
38902;DHT22;24661;53.566;9.910;2023-01-15T13:42:37;6.70;99.90
38902;DHT22;24661;53.566;9.910;2023-01-15T13:47:57;6.70;99.90
38902;DHT22;24661;53.566;9.910;2023-01-15T13:50:29;6.80;99.90
38902;DHT22;24661;53.566;9.910;2023-01-15T13:55:42;6.90;99.90
38902;DHT22;24661;53.566;9.910;2023-01-15T13:58:27;8.10;99.90
38902;DHT22;24661;53.566;9.910;2023-01-15T14:01:47;8.80;99.90
38902;DHT22;24661;53.566;9.910;2023-01-15T14:09:01;7.10;99.90
38902;DHT22;24661;53.566;9.910;2023-01-15T14:11:40;7.10;99.90
38902;DHT22;24661;53.566;9.910;2023-01-15T14:17:47;7.00;99.90
38902;DHT22;24661;53.566;9.910;2023-01-15T14:23:29;7.00;99.90
38902;DHT22;24661;53.566;9.910;2023-01-15T14:34:22;7.10;99.90
38902;DHT22;24661;53.566;9.910;2023-01-15T14:36:56;7.20;99.90
38902;DHT22;24661;53.566;9.910;2023-01-15T14:39:40;7.20;99.90
38902;DHT22;24661;53.566;9.910;2023-01-15T14:50:30;7.20;99.90
38902;DHT22;24661;53.566;9.910;2023-01-15T14:53:05;7.20;99.90
38902;DHT22;24661;53.566;9.910;2023-01-15T14:55:31;7.20;99.90
38902;DHT22;24661;53.566;9.910;2023-01-15T14:57:59;7.20;99.90
38902;DHT22;24661;53.566;9.910;2023-01-15T15:00:30;7.20;99.90
38902;DHT22;24661;53.566;9.910;2023-01-15T15:02:58;7.10;99.90
38902;DHT22;24661;53.566;9.910;2023-01-15T15:05:26;7.20;99.90
38902;DHT22;24661;53.566;9.910;2023-01-15T15:07:54;7.40;99.90
38902;DHT22;24661;53.566;9.910;2023-01-15T15:10:34;7.10;99.90
38902;DHT22;24661;53.566;9.910;2023-01-15T15:13:49;7.00;99.90
38902;DHT22;24661;53.566;9.910;2023-01-15T15:21:21;6.80;99.90
38902;DHT22;24661;53.566;9.910;2023-01-15T15:23:54;6.60;99.90
38902;DHT22;24661;53.566;9.910;2023-01-15T15:26:27;6.50;99.90
38902;DHT22;24661;53.566;9.910;2023-01-15T15:31:25;6.10;99.90
38902;DHT22;24661;53.566;9.910;2023-01-15T15:33:55;6.00;99.90
38902;DHT22;24661;53.566;9.910;2023-01-15T15:36:24;5.80;99.90
38902;DHT22;24661;53.566;9.910;2023-01-15T15:38:56;5.60;99.90
38902;DHT22;24661;53.566;9.910;2023-01-15T15:41:26;5.40;99.90
38902;DHT22;24661;53.566;9.910;2023-01-15T15:44:22;5.30;99.90
38902;DHT22;24661;53.566;9.910;2023-01-15T15:47:23;5.20;99.90
38902;DHT22;24661;53.566;9.910;2023-01-15T15:50:19;5.10;99.90
38902;DHT22;24661;53.566;9.910;2023-01-15T15:52:50;5.00;99.90
38902;DHT22;24661;53.566;9.910;2023-01-15T15:55:17;5.00;99.90
38902;DHT22;24661;53.566;9.910;2023-01-15T15:57:46;5.00;99.90
38902;DHT22;24661;53.566;9.910;2023-01-15T16:00:27;5.00;99.90
38902;DHT22;24661;53.566;9.910;2023-01-15T16:02:54;4.90;99.90
38902;DHT22;24661;53.566;9.910;2023-01-15T16:05:25;5.30;99.90
38902;DHT22;24661;53.566;9.910;2023-01-15T16:07:53;5.00;99.90
38902;DHT22;24661;53.566;9.910;2023-01-15T16:10:29;5.00;99.90
38902;DHT22;24661;53.566;9.910;2023-01-15T16:12:59;5.00;99.90
38902;DHT22;24661;53.566;9.910;2023-01-15T16:15:28;5.00;99.90
38902;DHT22;24661;53.566;9.910;2023-01-15T16:17:56;5.00;99.90
38902;DHT22;24661;53.566;9.910;2023-01-15T16:20:22;5.80;99.90
38902;DHT22;24661;53.566;9.910;2023-01-15T16:25:26;5.00;99.90
38902;DHT22;24661;53.566;9.910;2023-01-15T16:27:55;5.00;99.90
38902;DHT22;24661;53.566;9.910;2023-01-15T16:30:21;4.90;99.90
38902;DHT22;24661;53.566;9.910;2023-01-15T16:32:47;4.90;99.90
38902;DHT22;24661;53.566;9.910;2023-01-15T16:35:17;6.20;99.90
38902;DHT22;24661;53.566;9.910;2023-01-15T16:37:54;6.00;99.90
38902;DHT22;24661;53.566;9.910;2023-01-15T16:43:06;4.90;99.90
38902;DHT22;24661;53.566;9.910;2023-01-15T16:45:33;4.80;99.90
38902;DHT22;24661;53.566;9.910;2023-01-15T16:48:27;4.90;99.90
38902;DHT22;24661;53.566;9.910;2023-01-15T16:50:54;4.90;99.90
38902;DHT22;24661;53.566;9.910;2023-01-15T16:53:38;6.90;99.90
38902;DHT22;24661;53.566;9.910;2023-01-15T16:56:05;4.50;99.90
38902;DHT22;24661;53.566;9.910;2023-01-15T16:58:36;4.90;99.90
38902;DHT22;24661;53.566;9.910;2023-01-15T17:01:23;4.90;99.90
38902;DHT22;24661;53.566;9.910;2023-01-15T17:03:51;4.80;99.90
38902;DHT22;24661;53.566;9.910;2023-01-15T17:06:21;4.80;99.90
38902;DHT22;24661;53.566;9.910;2023-01-15T17:08:50;4.80;99.90
38902;DHT22;24661;53.566;9.910;2023-01-15T17:11:27;4.90;99.90
38902;DHT22;24661;53.566;9.910;2023-01-15T17:14:08;4.90;99.90
38902;DHT22;24661;53.566;9.910;2023-01-15T17:16:34;4.90;99.90
38902;DHT22;24661;53.566;9.910;2023-01-15T17:19:04;5.00;99.90
38902;DHT22;24661;53.566;9.910;2023-01-15T17:21:31;4.90;99.90
38902;DHT22;24661;53.566;9.910;2023-01-15T17:23:57;5.00;99.90
38902;DHT22;24661;53.566;9.910;2023-01-15T17:26:25;5.00;99.90
38902;DHT22;24661;53.566;9.910;2023-01-15T17:28:51;5.00;99.90
38902;DHT22;24661;53.566;9.910;2023-01-15T17:31:31;5.10;99.90
38902;DHT22;24661;53.566;9.910;2023-01-15T17:33:59;5.10;99.90
38902;DHT22;24661;53.566;9.910;2023-01-15T17:36:26;5.10;99.90
38902;DHT22;24661;53.566;9.910;2023-01-15T17:38:52;5.20;99.90
38902;DHT22;24661;53.566;9.910;2023-01-15T17:41:19;5.30;99.90
38902;DHT22;24661;53.566;9.910;2023-01-15T17:43:46;5.20;99.90
38902;DHT22;24661;53.566;9.910;2023-01-15T17:46:12;5.30;99.90
38902;DHT22;24661;53.566;9.910;2023-01-15T17:48:38;5.30;99.90
38902;DHT22;24661;53.566;9.910;2023-01-15T17:51:11;5.30;99.90
38902;DHT22;24661;53.566;9.910;2023-01-15T17:53:36;5.30;99.90
38902;DHT22;24661;53.566;9.910;2023-01-15T17:56:03;5.40;99.90
38902;DHT22;24661;53.566;9.910;2023-01-15T17:58:47;5.40;99.90
38902;DHT22;24661;53.566;9.910;2023-01-15T18:01:36;5.40;99.90
38902;DHT22;24661;53.566;9.910;2023-01-15T18:07:08;5.50;99.90
38902;DHT22;24661;53.566;9.910;2023-01-15T18:09:35;5.50;99.90
38902;DHT22;24661;53.566;9.910;2023-01-15T18:12:00;5.50;99.90
38902;DHT22;24661;53.566;9.910;2023-01-15T18:14:26;5.50;99.90
38902;DHT22;24661;53.566;9.910;2023-01-15T18:16:52;5.50;99.90
38902;DHT22;24661;53.566;9.910;2023-01-15T18:19:18;5.60;99.90
38902;DHT22;24661;53.566;9.910;2023-01-15T18:21:43;5.60;99.90
38902;DHT22;24661;53.566;9.910;2023-01-15T18:24:10;5.60;99.90
38902;DHT22;24661;53.566;9.910;2023-01-15T18:26:39;6.90;99.90